Mansehra Weather



Mansehra's Current Weather

Temprature 12.87o clear sky

clear sky

Rain: 0 %

Min Temprature12.87o
Max Temprature12.87o
Humidity38
Wind Speed2.07 m/h
Sun Rise06:23:34
Sun Set17:18:11
Current Time: 28-Oct-2020 04:31:29
Lat/Lon: 34.33, 73.2




Mansehra's Geo Location



Mansehra's Weather Forecast

Time Overall Temp Min Temp Max Temp Humidity Wind Speed Rain
28-Oct-2020 (Wed)
05:00:00 clear sky 13.200 12.870 13.200 38 2.07 m/h 0 %
08:00:00 clear sky 16.730 16.730 17.620 30 1.66 m/h 0 %
11:00:00 clear sky 23.570 23.570 24.260 20 1.54 m/h 0 %
14:00:00 clear sky 24.790 24.790 24.880 18 3.75 m/h 0 %
17:00:00 clear sky 18.720 18.720 18.720 26 1.9 m/h 0 %
20:00:00 clear sky 14.790 14.790 14.790 33 1.36 m/h 0 %
23:00:00 clear sky 13.790 13.790 13.790 35 2.14 m/h 0 %
29-Oct-2020 (Thu)
02:00:00 clear sky 13.130 13.130 13.130 37 2.29 m/h 0 %
05:00:00 clear sky 12.770 12.770 12.770 37 2.47 m/h 0 %
08:00:00 scattered clouds 17.130 17.130 17.130 29 1.93 m/h 0 %
11:00:00 broken clouds 23.330 23.330 23.330 20 1.25 m/h 0 %
14:00:00 overcast clouds 24.130 24.130 24.130 18 2.94 m/h 0 %
17:00:00 scattered clouds 18.440 18.440 18.440 27 1.73 m/h 0 %
20:00:00 clear sky 14.650 14.650 14.650 33 1.58 m/h 0 %
23:00:00 clear sky 13.540 13.540 13.540 36 2.38 m/h 0 %
30-Oct-2020 (Fri)
02:00:00 clear sky 12.770 12.770 12.770 37 2.62 m/h 0 %
05:00:00 clear sky 12.220 12.220 12.220 38 2.6 m/h 0 %
08:00:00 clear sky 16.570 16.570 16.570 29 2.36 m/h 0 %
11:00:00 clear sky 24.200 24.200 24.200 18 0.27 m/h 0 %
14:00:00 clear sky 24.960 24.960 24.960 16 2.3 m/h 0 %
17:00:00 clear sky 18.270 18.270 18.270 26 2.01 m/h 0 %
20:00:00 clear sky 14.280 14.280 14.280 33 1.6 m/h 0 %
23:00:00 clear sky 13.440 13.440 13.440 34 2.48 m/h 0 %
31-Oct-2020 (Sat)
02:00:00 clear sky 12.800 12.800 12.800 35 2.51 m/h 0 %
05:00:00 clear sky 12.200 12.200 12.200 36 2.6 m/h 0 %
08:00:00 clear sky 16.700 16.700 16.700 28 2.43 m/h 0 %
11:00:00 clear sky 24.470 24.470 24.470 17 0.8 m/h 0 %
14:00:00 clear sky 25.920 25.920 25.920 14 1.99 m/h 0 %
17:00:00 clear sky 18.210 18.210 18.210 26 2 m/h 0 %
20:00:00 clear sky 14.540 14.540 14.540 30 1.58 m/h 0 %
23:00:00 clear sky 13.600 13.600 13.600 32 2.57 m/h 0 %
01-Nov-2020 (Sun)
02:00:00 clear sky 13.020 13.020 13.020 32 2.56 m/h 0 %
05:00:00 clear sky 12.410 12.410 12.410 32 2.54 m/h 0 %
08:00:00 clear sky 17.080 17.080 17.080 26 2.23 m/h 0 %
11:00:00 clear sky 25.300 25.300 25.300 15 0.58 m/h 0 %
14:00:00 clear sky 26.200 26.200 26.200 14 3.05 m/h 0 %
17:00:00 clear sky 18.450 18.450 18.450 25 1.89 m/h 0 %
20:00:00 clear sky 14.900 14.900 14.900 30 1.78 m/h 0 %
23:00:00 clear sky 14.030 14.030 14.030 31 2.52 m/h 0 %
02-Nov-2020 (Mon)
02:00:00 clear sky 13.490 13.490 13.490 32 2.51 m/h 0 %

Famous Cities (60)